Strona główna
METAR-TAF:

METAR-TAF

Lotnisko :

Port lotniczy Kedougou

Kédougou, Senegal

Szerokość geograficzna: 12-34N, Długość geograficzna: 012-13W, wysokość: 178 m

Aktualna obserwacja pogody

Raport powstał 49 minut temu, godzina 18:00 UTC
Wiatr 4 kt od południowy zachód
Temperatura 32°C
Wilgotność 52%
Ciśnienie 1008 hPa
Widzialność 10 km lub więcej
Brak chmur poniżej 1500 m i brak chmur cumulonimbus

METAR: GOTK 301800Z 22004KT CAVOK 32/21 Q1008

czas: 18:49 (18:49 UTC)


TAF: brakujący

Obserwacja i prognoza pogody dla ponad 4000 lotnisk (raport METAR i TAF).

Dostępne stacje oznaczono żółtymi i czerwonymi punktami na mapie.

Najedź kursorem aby zobaczyć nazwę stacji.

Kliknij aby zobaczyć obserwacje i prognozy pogody.

Aby zmienić mapę: kliknij na zielony przycisk z czarnym krzyżykiem, aby powiększyć; na zielony przycisk z myślnikiem, aby pomniejszyć; na zielone strzałki, aby przejść do map sąsiednich.


METAR-TAF: